Time;durP1;ratioP1;P1;durP2;ratioP2;P2;SDS_P1;SDS_P2;PMS_P1;PMS_P2;Temp;Humidity;BMP_temperature;BMP_pressure;BME280_temperature;BME280_humidity;BME280_pressure;Samples;Min_cycle;Max_cycle;Signal;HPM_P1;HPM_P2
2022/07/06 00:01:26;;;;;;;33.35;31.10;;;;;;;23.11;100.00;100772.59;6064617;23;20071;-93
2022/07/06 00:03:53;;;;;;;28.60;26.60;;;;;;;22.79;100.00;100795.66;6064675;23;20038;-93
2022/07/06 00:06:20;;;;;;;29.05;27.02;;;;;;;23.22;100.00;100831.81;6059729;23;20074;-93
2022/07/06 00:08:46;;;;;;;29.23;27.17;;;;;;;23.59;100.00;100811.31;6062239;23;20019;-92
2022/07/06 00:11:13;;;;;;;29.17;27.27;;;;;;;24.06;100.00;100800.69;6065731;23;20010;-92
2022/07/06 00:13:44;;;;;;;26.92;24.95;;;;;;;24.15;100.00;100796.19;6066947;23;20023;-93
2022/07/06 00:16:11;;;;;;;28.85;26.50;;;;;;;24.29;100.00;100785.38;6065357;23;20039;-93
2022/07/06 00:18:43;;;;;;;27.02;25.02;;;;;;;24.42;100.00;100782.75;6064505;23;20039;-92
2022/07/06 00:21:12;;;;;;;29.43;27.27;;;;;;;24.41;100.00;100786.53;6065397;23;20019;-94
2022/07/06 00:23:44;;;;;;;37.35;34.97;;;;;;;24.00;100.00;100789.09;6065120;23;20035;-93
2022/07/06 00:26:17;;;;;;;34.03;31.60;;;;;;;24.04;100.00;100787.41;6065895;23;20030;-92
2022/07/06 00:28:45;;;;;;;35.03;32.78;;;;;;;24.09;100.00;100795.47;6065053;23;20049;-94
2022/07/06 00:31:12;;;;;;;38.10;35.60;;;;;;;23.85;100.00;100789.31;6064634;23;20050;-93
2022/07/06 00:33:39;;;;;;;30.92;29.02;;;;;;;23.83;100.00;100799.66;6064188;23;20038;-93
2022/07/06 00:36:06;;;;;;;30.08;28.08;;;;;;;23.71;100.00;100798.16;6063016;23;20019;-94
2022/07/06 00:38:33;;;;;;;30.75;28.85;;;;;;;23.42;100.00;100792.00;6064207;23;20007;-93
2022/07/06 00:41:00;;;;;;;30.90;28.90;;;;;;;23.25;100.00;100795.19;6062521;23;20059;-92
2022/07/06 00:43:27;;;;;;;34.22;31.73;;;;;;;23.55;100.00;100797.53;6061930;23;20019;-93
2022/07/06 00:45:59;;;;;;;30.20;28.30;;;;;;;23.25;100.00;100795.19;6062072;23;20064;-93
2022/07/06 00:48:26;;;;;;;30.23;28.23;;;;;;;23.53;100.00;100801.63;6062979;23;20023;-93
2022/07/06 00:50:53;;;;;;;34.40;32.40;;;;;;;23.47;100.00;100800.06;6062701;23;20030;-93
2022/07/06 00:53:22;;;;;;;33.30;30.83;;;;;;;23.59;100.00;100797.75;6063345;23;20066;-93
2022/07/06 00:55:51;;;;;;;31.58;29.67;;;;;;;23.03;100.00;100798.44;6064054;23;20023;-93
2022/07/06 00:58:18;;;;;;;36.40;34.30;;;;;;;23.48;100.00;100794.38;6063370;23;20042;-92
2022/07/06 01:00:46;;;;;;;41.20;38.90;;;;;;;23.52;100.00;100797.31;6064226;23;20106;-93
2022/07/06 01:03:18;;;;;;;46.90;44.08;;;;;;;23.16;100.00;100795.03;6064769;23;20035;-93
2022/07/06 01:05:45;;;;;;;41.15;38.65;;;;;;;23.59;100.00;100791.53;6062328;23;20039;-93
2022/07/06 01:08:13;;;;;;;43.45;40.03;;;;;;;23.77;100.00;100785.34;6064826;23;20050;-93
2022/07/06 01:10:43;;;;;;;42.55;39.83;;;;;;;23.89;100.00;100787.63;6064556;23;20007;-92
2022/07/06 01:13:09;;;;;;;41.63;38.20;;;;;;;24.02;100.00;100784.16;6064006;23;20023;-94
2022/07/06 01:15:36;;;;;;;43.38;40.38;;;;;;;23.85;100.00;100786.59;6064852;23;20035;-93
2022/07/06 01:18:04;;;;;;;47.50;44.75;;;;;;;23.92;100.00;100782.41;6063784;23;20027;-94
2022/07/06 01:20:34;;;;;;;46.03;42.92;;;;;;;23.95;100.00;100784.53;6064375;23;20016;-93
2022/07/06 01:23:01;;;;;;;45.75;42.55;;;;;;;23.86;100.00;100778.16;6064750;23;20023;-93
2022/07/06 01:25:29;;;;;;;43.85;40.80;;;;;;;23.90;100.00;100789.22;6065396;23;20015;-92
2022/07/06 01:27:56;;;;;;;48.95;45.45;;;;;;;23.87;100.00;100779.78;6065742;23;20504;-93
2022/07/06 01:30:23;;;;;;;43.22;40.08;;;;;;;23.17;100.00;100783.09;6064646;23;20023;-93
2022/07/06 01:32:54;;;;;;;42.65;39.55;;;;;;;23.51;100.00;100777.53;6062974;23;20038;-94
2022/07/06 01:35:21;;;;;;;41.45;38.58;;;;;;;23.56;100.00;100779.34;6064570;23;20023;-93
2022/07/06 01:37:52;;;;;;;45.25;41.95;;;;;;;23.47;100.00;100786.53;6064447;23;20478;-93
2022/07/06 01:40:19;;;;;;;40.85;38.00;;;;;;;23.19;100.00;100774.69;6061517;23;20003;-90
2022/07/06 01:42:45;;;;;;;42.60;39.63;;;;;;;23.25;100.00;100778.94;6062348;23;20023;-93
2022/07/06 01:45:12;;;;;;;56.70;53.40;;;;;;;23.28;100.00;100784.59;6061965;23;20039;-93
2022/07/06 01:47:39;;;;;;;49.72;46.20;;;;;;;23.29;100.00;100778.06;6062323;23;20029;-92
2022/07/06 01:50:09;;;;;;;56.72;53.42;;;;;;;22.97;100.00;100770.59;6062153;23;20022;-93
2022/07/06 01:52:36;;;;;;;49.85;46.30;;;;;;;22.82;100.00;100773.44;6064040;23;20031;-93
2022/07/06 01:55:07;;;;;;;46.72;43.38;;;;;;;22.79;100.00;100784.84;6063018;23;20030;-93
2022/07/06 01:57:34;;;;;;;42.33;38.58;;;;;;;22.98;100.00;100771.41;6063167;23;20028;-94
2022/07/06 02:00:01;;;;;;;38.40;35.50;;;;;;;23.03;100.00;100768.63;6063316;23;20024;-93
2022/07/06 02:02:28;;;;;;;44.50;41.08;;;;;;;22.80;100.00;100768.28;6034448;23;20047;-83
2022/07/06 02:04:55;;;;;;;42.15;38.58;;;;;;;23.15;100.00;100777.16;6039985;23;20020;-84
2022/07/06 02:07:22;;;;;;;42.30;39.33;;;;;;;23.11;100.00;100781.53;6039721;23;20027;-82
2022/07/06 02:09:49;;;;;;;48.13;44.70;;;;;;;23.28;100.00;100775.66;6040139;23;20019;-82
2022/07/06 02:12:17;;;;;;;45.10;41.75;;;;;;;22.98;100.00;100779.53;6040526;23;20370;-84
2022/07/06 02:14:46;;;;;;;50.10;46.42;;;;;;;22.75;100.00;100773.75;6040458;23;20348;-83
2022/07/06 02:17:13;;;;;;;52.45;48.55;;;;;;;22.90;100.00;100772.78;6039516;23;20038;-82
2022/07/06 02:19:40;;;;;;;53.30;49.83;;;;;;;22.84;100.00;100777.47;6039846;23;20082;-84
2022/07/06 02:22:06;;;;;;;52.70;49.33;;;;;;;23.04;100.00;100776.47;6040253;23;20042;-81
2022/07/06 02:24:34;;;;;;;49.80;46.47;;;;;;;23.01;100.00;100781.66;6039545;23;20038;-83
2022/07/06 02:27:01;;;;;;;50.88;47.40;;;;;;;23.08;100.00;100782.91;6040192;23;20098;-81
2022/07/06 02:29:31;;;;;;;48.92;45.40;;;;;;;22.89;100.00;100776.59;6039959;23;20027;-83
2022/07/06 02:31:57;;;;;;;58.63;54.55;;;;;;;22.74;100.00;100780.25;6041159;23;20023;-84
2022/07/06 02:34:24;;;;;;;47.83;44.33;;;;;;;22.63;100.00;100781.44;6040783;23;20031;-81
2022/07/06 02:36:51;;;;;;;57.05;53.15;;;;;;;22.66;100.00;100785.47;6038978;23;20377;-82
2022/07/06 02:39:18;;;;;;;44.45;41.47;;;;;;;22.63;100.00;100784.16;6040283;23;20027;-82
2022/07/06 02:41:46;;;;;;;46.95;43.47;;;;;;;22.64;100.00;100780.38;6040937;23;20035;-84
2022/07/06 02:44:13;;;;;;;43.78;40.53;;;;;;;22.55;100.00;100773.97;6040726;23;20030;-81
2022/07/06 02:46:41;;;;;;;48.17;44.53;;;;;;;22.63;100.00;100776.03;6040159;23;20050;-82
2022/07/06 02:49:09;;;;;;;42.75;39.47;;;;;;;22.23;100.00;100782.59;6041558;23;20039;-83
2022/07/06 02:51:36;;;;;;;43.63;40.63;;;;;;;22.46;100.00;100779.19;6041189;23;20026;-84
2022/07/06 02:54:03;;;;;;;38.42;35.58;;;;;;;21.98;100.00;100778.97;6040360;23;20130;-81
2022/07/06 02:56:30;;;;;;;38.30;35.10;;;;;;;22.01;100.00;100772.19;6040091;23;20440;-82
2022/07/06 02:58:57;;;;;;;41.40;38.40;;;;;;;21.58;100.00;100778.09;6040616;23;20031;-82
2022/07/06 03:01:23;;;;;;;42.47;39.08;;;;;;;21.68;100.00;100785.34;6040711;23;20031;-84
2022/07/06 03:03:52;;;;;;;42.00;38.40;;;;;;;21.71;100.00;100779.38;6040324;23;20027;-81
2022/07/06 03:06:18;;;;;;;43.65;40.13;;;;;;;22.21;100.00;100787.47;6040328;23;20027;-81
2022/07/06 03:08:45;;;;;;;42.92;39.58;;;;;;;21.56;100.00;100785.69;6042226;23;20038;-82
2022/07/06 03:11:19;;;;;;;43.45;39.65;;;;;;;22.17;100.00;100781.81;6042907;23;20090;-83
2022/07/06 03:13:47;;;;;;;39.90;36.78;;;;;;;21.72;100.00;100775.59;6044199;23;20034;-83
2022/07/06 03:16:15;;;;;;;39.90;36.75;;;;;;;22.25;100.00;100783.94;6043320;23;20023;-83
2022/07/06 03:18:48;;;;;;;38.13;35.22;;;;;;;22.06;100.00;100781.06;6045062;23;20023;-83
2022/07/06 03:21:17;;;;;;;41.03;38.28;;;;;;;21.99;100.00;100788.69;6044726;23;20023;-83
2022/07/06 03:24:02;;;;;;;35.50;31.90;;;;;;;22.41;100.00;100780.00;6044366;23;20091;-84
2022/07/06 03:26:30;;;;;;;40.38;37.38;;;;;;;22.71;100.00;100783.53;6042893;23;20019;-83
2022/07/06 03:28:57;;;;;;;41.92;38.22;;;;;;;21.83;100.00;100782.56;6043861;23;20023;-82
2022/07/06 03:31:29;;;;;;;40.13;37.05;;;;;;;22.38;100.00;100787.88;6044875;23;20031;-84
2022/07/06 03:34:07;;;;;;;41.45;38.13;;;;;;;22.72;100.00;100787.06;6045591;23;20023;-83
2022/07/06 03:36:36;;;;;;;40.00;37.00;;;;;;;22.82;100.00;100781.56;6044175;23;20065;-80
2022/07/06 03:39:03;;;;;;;36.25;33.58;;;;;;;22.68;100.00;100781.41;6044321;23;20023;-82
2022/07/06 03:41:30;;;;;;;39.88;36.85;;;;;;;22.92;100.00;100784.16;6044546;23;20029;-83
2022/07/06 03:43:57;;;;;;;36.40;33.35;;;;;;;22.80;100.00;100781.81;6045730;23;20047;-83
2022/07/06 03:46:24;;;;;;;36.92;34.03;;;;;;;23.06;100.00;100784.31;6043375;23;20027;-82
2022/07/06 03:48:51;;;;;;;35.33;32.35;;;;;;;23.35;100.00;100776.09;6043818;23;20023;-81
2022/07/06 03:51:18;;;;;;;33.75;31.25;;;;;;;23.40;100.00;100772.53;6044149;23;20383;-83
2022/07/06 03:53:47;;;;;;;35.10;32.58;;;;;;;23.36;100.00;100766.91;6043399;23;20023;-81
2022/07/06 03:56:29;;;;;;;35.05;32.33;;;;;;;23.46;100.00;100771.38;6043830;23;20023;-82
2022/07/06 03:58:56;;;;;;;36.67;34.03;;;;;;;23.58;100.00;100769.03;6042880;23;20348;-83
2022/07/06 04:01:23;;;;;;;35.28;32.67;;;;;;;23.54;100.00;100768.81;6042507;23;20020;-84
2022/07/06 04:03:50;;;;;;;37.05;34.35;;;;;;;23.59;100.00;100769.84;6043186;23;20024;-83
2022/07/06 04:06:22;;;;;;;39.05;36.17;;;;;;;23.57;100.00;100770.16;6042591;23;20020;-83
2022/07/06 04:08:50;;;;;;;36.03;33.25;;;;;;;23.80;100.00;100770.41;6042346;23;20034;-83
2022/07/06 04:11:18;;;;;;;35.40;32.70;;;;;;;23.96;100.00;100760.94;6042764;23;20024;-82
2022/07/06 04:13:45;;;;;;;35.92;33.22;;;;;;;23.86;100.00;100769.22;6043734;23;20020;-84
2022/07/06 04:16:13;;;;;;;35.42;32.55;;;;;;;24.07;100.00;100775.97;6043563;23;20019;-81
2022/07/06 04:18:40;;;;;;;33.00;30.60;;;;;;;23.86;100.00;100771.94;6042227;23;20047;-81
2022/07/06 04:21:06;;;;;;;33.58;30.80;;;;;;;24.11;100.00;100768.84;6041159;23;20034;-84
2022/07/06 04:23:33;;;;;;;31.73;29.33;;;;;;;24.39;100.00;100771.66;6040616;23;20027;-80
2022/07/06 04:26:02;;;;;;;34.25;31.52;;;;;;;24.29;100.00;100772.63;6042108;23;20416;-81
2022/07/06 04:28:30;;;;;;;32.78;29.95;;;;;;;24.43;100.00;100770.78;6041064;23;20090;-80
2022/07/06 04:30:59;;;;;;;30.55;28.23;;;;;;;24.62;100.00;100773.44;6043832;23;20030;-83
2022/07/06 04:33:26;;;;;;;32.90;30.30;;;;;;;24.51;100.00;100774.75;6042415;23;20040;-83
2022/07/06 04:35:55;;;;;;;32.92;29.92;;;;;;;24.92;100.00;100780.22;6042285;23;20019;-83
2022/07/06 04:38:23;;;;;;;31.55;28.90;;;;;;;25.46;100.00;100777.03;6041702;23;20034;-82
2022/07/06 04:40:57;;;;;;;34.78;32.05;;;;;;;25.14;100.00;100789.63;6041573;23;20087;-82
2022/07/06 04:43:25;;;;;;;33.90;31.10;;;;;;;24.62;100.00;100786.22;6042042;23;20023;-82
2022/07/06 04:45:53;;;;;;;34.70;31.75;;;;;;;24.79;100.00;100788.38;6041732;23;20023;-80
2022/07/06 04:48:20;;;;;;;34.80;31.75;;;;;;;24.57;100.00;100784.41;6039023;23;20030;-80
2022/07/06 04:50:48;;;;;;;33.35;30.67;;;;;;;25.01;100.00;100784.97;6041733;23;20087;-82
2022/07/06 04:53:15;;;;;;;33.22;30.70;;;;;;;24.49;100.00;100790.50;6040166;23;20030;-80
2022/07/06 04:55:42;;;;;;;31.23;28.70;;;;;;;25.82;100.00;100777.09;6041411;23;20056;-81
2022/07/06 04:58:09;;;;;;;31.65;29.13;;;;;;;25.10;100.00;100783.16;6042219;23;20038;-81
2022/07/06 05:00:37;;;;;;;32.60;29.90;;;;;;;24.87;100.00;100793.09;6039938;23;20026;-79
2022/07/06 05:03:05;;;;;;;31.58;28.83;;;;;;;24.69;100.00;100792.09;6042167;23;20023;-80
2022/07/06 05:05:32;;;;;;;32.55;29.75;;;;;;;24.85;100.00;100796.13;6040428;23;20464;-80
2022/07/06 05:08:00;;;;;;;30.77;28.15;;;;;;;25.73;100.00;100787.06;6041904;23;20038;-82
2022/07/06 05:10:32;;;;;;;32.58;30.08;;;;;;;25.39;100.00;100799.19;6043101;23;20027;-82
2022/07/06 05:12:59;;;;;;;33.88;31.08;;;;;;;24.56;100.00;100796.34;6041190;23;20058;-83
2022/07/06 05:15:26;;;;;;;30.88;28.35;;;;;;;24.83;100.00;100801.03;6042364;23;20094;-82
2022/07/06 05:17:55;;;;;;;32.05;29.63;;;;;;;24.20;100.00;100805.03;6041811;23;20445;-81
2022/07/06 05:20:22;;;;;;;32.55;29.95;;;;;;;24.86;100.00;100815.94;6040071;23;20063;-83
2022/07/06 05:22:49;;;;;;;30.30;28.05;;;;;;;24.84;100.00;100820.84;6039431;23;20547;-83
2022/07/06 05:25:16;;;;;;;34.08;31.30;;;;;;;24.78;100.00;100820.16;6044049;23;20625;-81
2022/07/06 05:27:43;;;;;;;33.53;30.75;;;;;;;25.46;100.00;100823.25;6038854;23;20019;-83
2022/07/06 05:30:11;;;;;;;34.78;31.00;;;;;;;25.17;100.00;100820.81;6039126;23;20150;-81
2022/07/06 05:32:38;;;;;;;34.00;31.35;;;;;;;25.08;100.00;100832.38;6040076;23;20027;-84
2022/07/06 05:35:08;;;;;;;34.35;31.52;;;;;;;24.53;100.00;100828.72;6041280;23;20023;-81
2022/07/06 05:37:35;;;;;;;34.78;31.85;;;;;;;25.81;100.00;100833.41;6041452;23;20019;-83
2022/07/06 05:40:02;;;;;;;32.78;29.95;;;;;;;25.29;100.00;100837.44;6040029;23;20019;-81
2022/07/06 05:42:29;;;;;;;32.33;29.83;;;;;;;25.56;100.00;100842.88;6039565;23;20429;-83
2022/07/06 05:44:57;;;;;;;32.72;30.15;;;;;;;25.96;100.00;100834.16;6040948;23;20027;-82
2022/07/06 05:50:14;;;;;;;35.45;32.55;;;;;;;25.51;100.00;100843.00;6041977;23;20075;-84
2022/07/06 05:52:41;;;;;;;35.33;32.53;;;;;;;25.91;100.00;100840.53;6041310;23;20394;-82
2022/07/06 05:55:09;;;;;;;36.47;33.63;;;;;;;25.16;100.00;100849.13;6040261;23;20413;-84
2022/07/06 05:57:36;;;;;;;32.88;30.27;;;;;;;25.86;100.00;100851.53;6043965;23;20027;-86
2022/07/06 06:00:11;;;;;;;35.72;32.55;;;;;;;25.25;100.00;100852.75;6043467;23;20083;-81
2022/07/06 06:02:39;;;;;;;34.95;32.28;;;;;;;25.53;100.00;100848.09;6041825;23;20027;-80
2022/07/06 06:05:11;;;;;;;34.47;31.88;;;;;;;25.92;100.00;100844.84;6041860;23;20027;-82
2022/07/06 06:07:39;;;;;;;31.95;29.55;;;;;;;25.52;100.00;100846.50;6042566;23;20041;-80
2022/07/06 06:10:09;;;;;;;35.05;32.25;;;;;;;25.56;100.00;100851.03;6042004;23;20361;-79
2022/07/06 06:12:37;;;;;;;34.17;31.17;;;;;;;25.27;100.00;100847.84;6040731;23;20015;-83
2022/07/06 06:15:05;;;;;;;32.75;29.52;;;;;;;25.84;100.00;100847.50;6044648;23;20023;-81
2022/07/06 06:17:32;;;;;;;33.60;30.70;;;;;;;25.42;100.00;100854.84;6046017;23;20019;-81
2022/07/06 06:20:00;;;;;;;32.10;29.52;;;;;;;25.76;100.00;100851.72;6048929;23;20459;-82
2022/07/06 06:22:45;;;;;;;31.63;28.80;;;;;;;25.97;100.00;100847.47;6044007;23;20441;-79
2022/07/06 06:25:12;;;;;;;33.33;30.50;;;;;;;25.57;100.00;100855.38;6047742;23;20034;-81
2022/07/06 06:27:39;;;;;;;32.67;29.67;;;;;;;25.87;100.00;100846.88;6041593;23;20101;-80
2022/07/06 06:30:07;;;;;;;31.52;29.02;;;;;;;25.76;100.00;100851.72;6039472;23;20027;-79
2022/07/06 06:32:33;;;;;;;32.50;29.48;;;;;;;26.22;100.00;100839.84;6041812;23;20094;-81
2022/07/06 06:35:00;;;;;;;32.58;29.67;;;;;;;26.49;100.00;100838.94;6044629;23;20056;-83
2022/07/06 06:37:27;;;;;;;34.05;31.10;;;;;;;25.71;100.00;100851.81;6043546;23;20038;-80
2022/07/06 06:40:01;;;;;;;31.77;29.10;;;;;;;26.11;100.00;100841.97;6041218;23;20019;-80
2022/07/06 06:42:27;;;;;;;32.65;30.23;;;;;;;26.58;100.00;100839.00;6042115;23;20030;-81
2022/07/06 06:44:55;;;;;;;31.75;28.83;;;;;;;26.54;100.00;100846.19;6045320;23;20027;-81
2022/07/06 06:47:22;;;;;;;35.38;32.45;;;;;;;26.23;100.00;100852.31;6046929;23;20075;-80
2022/07/06 06:49:49;;;;;;;32.55;29.90;;;;;;;26.43;100.00;100840.16;6045153;23;20035;-80
2022/07/06 06:52:22;;;;;;;32.30;29.63;;;;;;;26.53;100.00;100828.25;6043868;23;20028;-82
2022/07/06 06:54:49;;;;;;;33.15;30.63;;;;;;;26.49;100.00;100826.13;6038881;23;20027;-83
2022/07/06 06:57:17;;;;;;;34.15;30.83;;;;;;;26.33;100.00;100835.78;6040210;23;20030;-82
2022/07/06 06:59:44;;;;;;;36.53;33.42;;;;;;;26.70;100.00;100840.06;6039443;23;20334;-84
2022/07/06 07:02:11;;;;;;;43.42;38.95;;;;;;;26.95;100.00;100848.69;6038828;23;20019;-82
2022/07/06 07:04:38;;;;;;;32.55;29.88;;;;;;;26.75;100.00;100839.13;6039730;23;20031;-80
2022/07/06 07:07:05;;;;;;;34.28;31.23;;;;;;;27.06;100.00;100838.31;6039737;23;20023;-83
2022/07/06 07:09:32;;;;;;;34.15;31.45;;;;;;;27.21;100.00;100839.84;6039809;23;20091;-80
2022/07/06 07:11:58;;;;;;;35.08;32.22;;;;;;;27.73;100.00;100840.00;6039553;23;20034;-81
2022/07/06 07:14:27;;;;;;;33.78;31.17;;;;;;;27.40;100.00;100845.84;6039023;23;20086;-82
2022/07/06 07:16:54;;;;;;;33.70;31.02;;;;;;;27.12;100.00;100845.25;6039737;23;20397;-82
2022/07/06 07:19:21;;;;;;;35.25;31.73;;;;;;;27.59;100.00;100840.91;6037761;23;20034;-80
2022/07/06 07:21:48;;;;;;;34.53;31.73;;;;;;;27.38;100.00;100845.34;6037346;23;20023;-81
2022/07/06 07:24:15;;;;;;;33.55;30.85;;;;;;;27.24;100.00;100841.94;6037706;23;20027;-82
2022/07/06 07:26:42;;;;;;;32.88;30.38;;;;;;;27.61;100.00;100854.25;6039057;23;20023;-80
2022/07/06 07:29:09;;;;;;;32.10;29.50;;;;;;;27.73;100.00;100850.91;6037756;23;20019;-81
2022/07/06 07:31:38;;;;;;;33.03;30.48;;;;;;;26.89;100.00;100850.72;6038607;23;20019;-82
2022/07/06 07:34:05;;;;;;;33.65;31.08;;;;;;;28.22;100.00;100846.94;6039060;23;20047;-81
2022/07/06 07:36:32;;;;;;;31.98;29.25;;;;;;;28.20;100.00;100845.66;6039261;23;20019;-82
2022/07/06 07:38:59;;;;;;;30.58;28.30;;;;;;;27.94;100.00;100851.13;6039912;23;20035;-84
2022/07/06 07:41:25;;;;;;;29.98;27.88;;;;;;;28.36;100.00;100844.06;6039345;23;20019;-83
2022/07/06 07:43:52;;;;;;;29.60;27.13;;;;;;;28.15;100.00;100841.19;6039040;23;20023;-83
2022/07/06 07:46:19;;;;;;;32.40;29.95;;;;;;;28.02;100.00;100840.22;6039210;23;20042;-83
2022/07/06 07:48:48;;;;;;;32.50;30.00;;;;;;;28.40;100.00;100841.50;6039866;23;20027;-82
2022/07/06 07:51:15;;;;;;;32.53;30.23;;;;;;;28.02;100.00;100839.41;6040311;23;20345;-82
2022/07/06 07:53:44;;;;;;;32.70;30.23;;;;;;;28.22;100.00;100835.22;6039873;23;20500;-83
2022/07/06 07:56:11;;;;;;;33.70;31.10;;;;;;;28.43;100.00;100835.41;6040795;23;20027;-84
2022/07/06 07:58:38;;;;;;;31.80;29.48;;;;;;;28.71;100.00;100841.28;6041044;23;20038;-81
2022/07/06 08:01:05;;;;;;;34.65;32.05;;;;;;;28.47;100.00;100841.81;6039873;23;20039;-82
2022/07/06 08:03:32;;;;;;;34.38;30.90;;;;;;;28.56;100.00;100823.47;6041058;23;20038;-82
2022/07/06 08:06:00;;;;;;;34.10;31.40;;;;;;;29.15;100.00;100833.78;6041860;23;20098;-80
2022/07/06 08:08:27;;;;;;;35.50;32.58;;;;;;;28.94;100.00;100836.41;6040805;23;20031;-82
2022/07/06 08:10:54;;;;;;;35.60;32.80;;;;;;;28.73;100.00;100830.84;6041098;23;20035;-83
2022/07/06 08:13:22;;;;;;;35.40;32.90;;;;;;;29.17;100.00;100837.00;6040715;23;20043;-81
2022/07/06 08:15:49;;;;;;;34.45;31.92;;;;;;;28.22;100.00;100835.22;6040578;23;20038;-82
2022/07/06 08:18:16;;;;;;;35.63;32.60;;;;;;;28.51;100.00;100835.41;6041118;23;20038;-83
2022/07/06 08:20:42;;;;;;;35.60;33.00;;;;;;;28.13;100.00;100837.97;6041240;23;20034;-81
2022/07/06 08:23:11;;;;;;;35.60;32.47;;;;;;;28.36;100.00;100837.81;6041338;23;20023;-83
2022/07/06 08:25:38;;;;;;;31.75;29.48;;;;;;;28.06;100.00;100843.91;6041316;23;20390;-81
2022/07/06 08:28:05;;;;;;;32.53;29.80;;;;;;;28.43;100.00;100835.41;6041091;23;20019;-83
2022/07/06 08:30:34;;;;;;;34.78;32.03;;;;;;;28.39;100.00;100839.91;6040514;23;20023;-80
2022/07/06 08:33:01;;;;;;;32.88;30.40;;;;;;;28.69;100.00;100832.63;6040854;23;20349;-81
2022/07/06 08:35:28;;;;;;;33.30;30.60;;;;;;;29.27;100.00;100841.31;6041270;23;20106;-85
2022/07/06 08:37:55;;;;;;;32.55;29.95;;;;;;;29.16;100.00;100847.13;6039457;23;20047;-83
2022/07/06 08:40:26;;;;;;;31.48;28.92;;;;;;;28.78;100.00;100833.41;6040498;23;20472;-80
2022/07/06 08:42:55;;;;;;;34.47;31.77;;;;;;;28.85;100.00;100838.38;6040299;23;20030;-83
2022/07/06 08:45:22;;;;;;;31.77;29.58;;;;;;;28.30;100.00;100848.09;6040495;23;20031;-82
2022/07/06 08:47:50;;;;;;;29.55;27.58;;;;;;;28.08;100.00;100838.16;6040351;23;20442;-82
2022/07/06 08:50:17;;;;;;;28.92;26.73;;;;;;;28.17;100.00;100833.50;6040045;23;20027;-82
2022/07/06 08:52:44;;;;;;;29.60;27.63;;;;;;;29.24;100.00;100844.69;6040355;23;20034;-81
2022/07/06 08:55:12;;;;;;;28.67;26.65;;;;;;;28.94;100.00;100841.88;6040553;23;20027;-83
2022/07/06 08:57:42;;;;;;;28.90;26.92;;;;;;;28.92;100.00;100841.41;6041151;23;20099;-83
2022/07/06 09:00:10;;;;;;;30.73;28.10;;;;;;;29.51;100.00;100832.50;6040727;23;20398;-84
2022/07/06 09:02:38;;;;;;;31.33;28.83;;;;;;;29.12;100.00;100840.72;6040713;23;20023;-84
2022/07/06 09:05:05;;;;;;;30.52;28.15;;;;;;;29.51;100.00;100837.97;6039492;23;20020;-83
2022/07/06 09:07:33;;;;;;;32.42;29.88;;;;;;;29.29;100.00;100833.56;6040499;23;20458;-82
2022/07/06 09:10:02;;;;;;;31.20;28.83;;;;;;;30.01;100.00;100832.47;6042153;23;20019;-84
2022/07/06 09:12:29;;;;;;;31.92;29.55;;;;;;;29.17;100.00;100837.81;6041506;23;20016;-83
2022/07/06 09:14:58;;;;;;;34.92;32.33;;;;;;;29.60;100.00;100835.97;6041048;23;20023;-83
2022/07/06 09:17:27;;;;;;;36.08;33.38;;;;;;;28.85;100.00;100835.66;6040079;23;20031;-82
2022/07/06 09:19:55;;;;;;;38.45;35.72;;;;;;;30.34;100.00;100829.78;6040747;23;20027;-82
2022/07/06 09:22:27;;;;;;;37.90;35.05;;;;;;;29.75;100.00;100829.94;6040583;23;20031;-82
2022/07/06 09:24:54;;;;;;;35.53;32.67;;;;;;;29.75;100.00;100840.09;6041493;23;20034;-81
2022/07/06 09:27:23;;;;;;;36.80;33.75;;;;;;;28.79;100.00;100835.00;6041402;23;20035;-82
2022/07/06 09:29:50;;;;;;;36.75;33.83;;;;;;;29.51;100.00;100841.50;6040824;23;20025;-82
2022/07/06 09:32:21;;;;;;;33.60;31.10;;;;;;;29.43;100.00;100836.88;6040592;23;20433;-80
2022/07/06 09:34:49;;;;;;;36.67;34.03;;;;;;;28.46;100.00;100845.69;6041032;23;20050;-81
2022/07/06 09:37:16;;;;;;;35.92;33.22;;;;;;;29.10;100.00;100840.22;6039836;23;20322;-82
2022/07/06 09:39:44;;;;;;;35.95;33.25;;;;;;;29.04;100.00;100838.81;6040065;23;20023;-80
2022/07/06 09:42:11;;;;;;;35.90;33.08;;;;;;;29.53;100.00;100838.41;6039299;23;20034;-78
2022/07/06 09:44:40;;;;;;;38.65;35.95;;;;;;;29.34;100.00;100842.38;6039170;23;20090;-79
2022/07/06 09:47:09;;;;;;;36.97;34.47;;;;;;;29.42;100.00;100849.75;6040011;23;20034;-79
2022/07/06 09:49:37;;;;;;;38.72;35.65;;;;;;;28.97;100.00;100844.75;6039851;23;20023;-82
2022/07/06 09:52:06;;;;;;;40.45;37.55;;;;;;;28.80;100.00;100844.81;6041638;23;20459;-81
2022/07/06 09:54:34;;;;;;;39.25;36.13;;;;;;;29.03;100.00;100834.47;6039559;23;20027;-81
2022/07/06 09:57:02;;;;;;;39.38;36.67;;;;;;;28.88;100.00;100843.97;6039868;23;20098;-80
2022/07/06 09:59:31;;;;;;;36.78;34.17;;;;;;;30.03;100.00;100843.09;6039856;23;20099;-81
2022/07/06 10:02:01;;;;;;;41.45;38.65;;;;;;;29.20;100.00;100839.09;6039544;23;20027;-84
2022/07/06 10:04:29;;;;;;;37.22;34.83;;;;;;;28.67;100.00;100840.34;6039820;23;20091;-84
2022/07/06 10:06:59;;;;;;;38.40;35.50;;;;;;;28.61;100.00;100838.91;6039591;23;20023;-81
2022/07/06 10:09:28;;;;;;;37.90;35.30;;;;;;;29.95;100.00;100830.28;6039587;23;20019;-80
2022/07/06 10:11:57;;;;;;;39.92;37.28;;;;;;;29.80;100.00;100837.13;6041076;23;20087;-78
2022/07/06 10:14:25;;;;;;;35.90;33.50;;;;;;;29.78;100.00;100834.75;6039500;23;20019;-79
2022/07/06 10:16:53;;;;;;;36.72;33.63;;;;;;;29.63;100.00;100830.66;6039458;23;20455;-79
2022/07/06 10:19:22;;;;;;;36.92;34.17;;;;;;;29.32;100.00;100824.69;6039578;23;20027;-80
2022/07/06 10:21:49;;;;;;;35.63;33.33;;;;;;;28.84;100.00;100814.91;6039938;23;20023;-79
2022/07/06 10:24:19;;;;;;;35.00;32.60;;;;;;;29.10;100.00;100817.56;6039676;23;20034;-80
2022/07/06 10:26:47;;;;;;;35.38;32.95;;;;;;;29.83;100.00;100826.31;6039686;23;20050;-79
2022/07/06 10:29:15;;;;;;;38.88;36.17;;;;;;;29.30;100.00;100816.03;6038920;23;20027;-80
2022/07/06 10:31:45;;;;;;;40.08;37.67;;;;;;;28.63;100.00;100820.28;6040003;23;20035;-81
2022/07/06 10:34:16;;;;;;;38.97;36.53;;;;;;;28.42;100.00;100825.63;6039739;23;20023;-80
2022/07/06 10:36:44;;;;;;;37.78;35.38;;;;;;;30.13;100.00;100812.56;6039826;23;20028;-78
2022/07/06 10:41:58;;;;;;;37.03;34.85;;;;;;;30.07;100.00;100822.91;6039966;23;20467;-81
2022/07/06 10:44:27;;;;;;;33.83;31.58;;;;;;;30.37;100.00;100811.09;6039475;23;20027;-78
2022/07/06 10:46:56;;;;;;;35.83;32.83;;;;;;;29.07;100.00;100821.75;6038451;23;20042;-80
2022/07/06 10:49:24;;;;;;;33.38;31.02;;;;;;;29.81;100.00;100817.66;6039600;23;20027;-81
2022/07/06 10:51:51;;;;;;;34.65;32.30;;;;;;;30.39;100.00;100811.56;6039987;23;20034;-78
2022/07/06 10:54:21;;;;;;;34.05;31.52;;;;;;;29.86;100.00;100813.91;6039053;23;20031;-80
2022/07/06 10:56:51;;;;;;;34.50;32.10;;;;;;;29.84;100.00;100814.25;6039218;23;20026;-80
2022/07/06 10:59:21;;;;;;;31.02;28.42;;;;;;;30.05;100.00;100816.19;6039670;23;20072;-81
2022/07/06 11:02:14;;;;;;;31.90;29.58;;;;;;;28.94;100.00;100818.06;6039172;23;20030;-80
2022/07/06 11:04:43;;;;;;;34.45;32.15;;;;;;;29.56;100.00;100810.38;6025620;23;20034;-81
2022/07/06 11:07:11;;;;;;;29.15;27.15;;;;;;;30.50;97.13;100799.84;6039669;23;20038;-79
2022/07/06 11:09:38;;;;;;;36.05;33.55;;;;;;;28.70;100.00;100812.38;6039065;23;20031;-80
2022/07/06 11:12:18;;;;;;;38.92;35.80;;;;;;;28.98;100.00;100810.81;6039250;23;20091;-79